createdAt,value
2022-10-20T00:02:04.363Z,18.20
2022-10-20T00:04:31.672Z,18.20
2022-10-20T00:06:58.946Z,18.20
2022-10-20T00:09:26.143Z,18.10
2022-10-20T00:11:53.348Z,18.10
2022-10-20T00:14:20.569Z,18.00
2022-10-20T00:16:47.944Z,18.00
2022-10-20T00:19:15.329Z,18.00
2022-10-20T00:21:43.304Z,18.00
2022-10-20T00:24:10.586Z,18.00
2022-10-20T00:26:37.914Z,18.00
2022-10-20T00:29:05.229Z,18.00
2022-10-20T00:31:32.724Z,17.90
2022-10-20T00:33:59.865Z,17.90
2022-10-20T00:36:27.244Z,17.90
2022-10-20T00:38:59.114Z,17.90
2022-10-20T00:41:26.672Z,17.90
2022-10-20T00:44:23.845Z,18.00
2022-10-20T00:46:51.046Z,17.90
2022-10-20T00:49:23.905Z,17.90
2022-10-20T00:51:55.283Z,17.90
2022-10-20T00:54:28.100Z,17.90
2022-10-20T00:56:56.657Z,17.80
2022-10-20T00:59:31.779Z,17.80
2022-10-20T01:02:01.251Z,17.80
2022-10-20T01:04:31.178Z,17.80
2022-10-20T01:06:59.454Z,17.80
2022-10-20T01:09:26.925Z,17.80
2022-10-20T01:12:33.167Z,17.80
2022-10-20T01:15:17.216Z,17.80
2022-10-20T01:17:59.627Z,17.80
2022-10-20T01:20:29.647Z,17.80
2022-10-20T01:23:33.539Z,17.80
2022-10-20T01:26:34.316Z,17.80
2022-10-20T01:29:08.647Z,17.70
2022-10-20T01:31:54.361Z,17.70
2022-10-20T01:34:28.725Z,17.70
2022-10-20T01:37:08.484Z,17.60
2022-10-20T01:39:48.678Z,17.60
2022-10-20T01:42:23.058Z,17.60
2022-10-20T01:44:53.420Z,17.50
2022-10-20T01:47:21.883Z,17.60
2022-10-20T01:49:50.248Z,17.50
2022-10-20T01:52:18.319Z,17.50
2022-10-20T01:54:45.521Z,17.50
2022-10-20T01:57:42.319Z,17.50
2022-10-20T02:00:15.631Z,17.50
2022-10-20T02:03:10.786Z,17.50
2022-10-20T02:05:50.498Z,17.50
2022-10-20T02:08:40.740Z,17.50
2022-10-20T02:11:15.956Z,17.50
2022-10-20T02:13:43.988Z,17.40
2022-10-20T02:16:20.582Z,17.40
2022-10-20T02:18:48.536Z,17.40
2022-10-20T02:21:16.651Z,17.40
2022-10-20T02:23:47.613Z,17.40
2022-10-20T02:26:17.434Z,17.40
2022-10-20T02:28:49.091Z,17.40
2022-10-20T02:31:18.714Z,17.30
2022-10-20T02:33:47.363Z,17.30
2022-10-20T02:36:20.173Z,17.30
2022-10-20T02:38:47.417Z,17.30
2022-10-20T02:41:14.649Z,17.30
2022-10-20T02:43:44.320Z,17.20
2022-10-20T02:46:11.681Z,17.20
2022-10-20T02:48:38.967Z,17.20
2022-10-20T02:51:06.840Z,17.20
2022-10-20T02:53:34.280Z,17.20
2022-10-20T02:56:02.013Z,17.20
2022-10-20T02:58:29.264Z,17.20
2022-10-20T03:00:57.859Z,17.20
2022-10-20T03:03:25.214Z,17.20
2022-10-20T03:05:52.529Z,17.20
2022-10-20T03:08:19.880Z,17.20
2022-10-20T03:10:47.081Z,17.10
2022-10-20T03:13:15.684Z,17.10
2022-10-20T03:15:42.817Z,17.10
2022-10-20T03:18:10.138Z,17.10
2022-10-20T03:20:37.338Z,17.10
2022-10-20T03:23:04.450Z,17.00
2022-10-20T03:25:32.685Z,17.00
2022-10-20T03:28:00.007Z,17.10
2022-10-20T03:30:27.450Z,17.00
2022-10-20T03:32:55.921Z,17.00
2022-10-20T03:35:23.065Z,17.00
2022-10-20T03:37:50.291Z,17.00
2022-10-20T03:40:18.522Z,17.00
2022-10-20T03:42:45.738Z,17.00
2022-10-20T03:45:15.023Z,17.00
2022-10-20T03:47:44.958Z,17.00
2022-10-20T03:50:12.193Z,17.00
2022-10-20T03:52:39.474Z,17.00
2022-10-20T03:55:07.596Z,17.00
2022-10-20T03:57:34.962Z,16.90
2022-10-20T04:00:02.389Z,16.90
2022-10-20T04:02:46.245Z,16.90
2022-10-20T04:05:16.510Z,16.90
2022-10-20T04:07:44.568Z,16.90
2022-10-20T04:10:12.996Z,16.80
2022-10-20T04:12:40.472Z,16.80
2022-10-20T04:15:12.489Z,16.80
2022-10-20T04:20:12.582Z,16.90
2022-10-20T04:22:40.720Z,16.90
2022-10-20T04:25:08.449Z,17.00
2022-10-20T04:27:36.480Z,17.00
2022-10-20T04:30:04.318Z,17.00
2022-10-20T04:32:31.521Z,16.90
2022-10-20T04:34:58.689Z,16.90
2022-10-20T04:37:25.902Z,16.90
2022-10-20T04:39:53.314Z,16.90
2022-10-20T04:42:20.609Z,17.00
2022-10-20T04:44:47.898Z,16.90
2022-10-20T04:47:15.312Z,16.90
2022-10-20T04:49:42.524Z,16.90
2022-10-20T04:52:09.824Z,16.90
2022-10-20T04:54:37.094Z,16.90
2022-10-20T04:57:06.173Z,16.80
2022-10-20T04:59:34.106Z,16.80
2022-10-20T05:02:01.491Z,16.80
2022-10-20T05:04:28.741Z,16.80
2022-10-20T05:06:56.057Z,16.80
2022-10-20T05:09:23.172Z,16.80
2022-10-20T05:11:50.322Z,16.80
2022-10-20T05:14:17.589Z,16.80
2022-10-20T05:16:44.721Z,16.80
2022-10-20T05:19:12.273Z,16.90
2022-10-20T05:21:39.510Z,16.90
2022-10-20T05:24:07.010Z,16.90
2022-10-20T05:26:37.420Z,16.90
2022-10-20T05:29:08.408Z,16.90
2022-10-20T05:31:43.894Z,17.00
2022-10-20T05:34:11.639Z,17.10
2022-10-20T05:36:39.762Z,17.10
2022-10-20T05:39:07.058Z,17.20
2022-10-20T05:41:38.032Z,17.20
2022-10-20T05:44:11.334Z,17.30
2022-10-20T05:46:42.819Z,17.40
2022-10-20T05:49:16.777Z,17.40
2022-10-20T05:51:45.288Z,17.50
2022-10-20T05:54:13.812Z,17.70
2022-10-20T05:56:43.456Z,17.70
2022-10-20T05:59:11.624Z,17.90
2022-10-20T06:01:49.195Z,18.00
2022-10-20T06:04:24.807Z,18.10
2022-10-20T06:06:53.171Z,18.20
2022-10-20T06:09:21.772Z,18.30
2022-10-20T06:11:49.056Z,18.50
2022-10-20T06:14:17.662Z,18.50
2022-10-20T06:16:45.034Z,18.70
2022-10-20T06:19:12.475Z,18.80
2022-10-20T06:24:10.917Z,19.00
2022-10-20T06:26:38.898Z,19.10
2022-10-20T06:29:11.752Z,19.20
2022-10-20T06:31:50.732Z,19.30
2022-10-20T06:34:20.770Z,19.40
2022-10-20T06:36:49.507Z,19.50
2022-10-20T06:39:19.959Z,19.60
2022-10-20T06:41:50.470Z,19.70
2022-10-20T06:44:20.453Z,19.90
2022-10-20T06:46:47.566Z,20.00
2022-10-20T06:49:15.491Z,20.10
2022-10-20T06:51:43.326Z,20.10
2022-10-20T06:54:11.344Z,20.20
2022-10-20T06:56:39.534Z,20.20
2022-10-20T06:59:07.053Z,20.20
2022-10-20T07:01:39.401Z,20.30
2022-10-20T07:04:11.087Z,20.30
2022-10-20T07:06:40.301Z,20.40
2022-10-20T07:09:09.454Z,20.50
2022-10-20T07:11:37.033Z,20.50
2022-10-20T07:14:05.617Z,20.60
2022-10-20T07:16:35.127Z,20.70
2022-10-20T07:19:03.455Z,20.80
2022-10-20T07:21:35.766Z,21.00
2022-10-20T07:24:06.821Z,21.10
2022-10-20T07:26:36.736Z,21.20
2022-10-20T07:29:05.211Z,21.30
2022-10-20T07:31:36.448Z,21.30
2022-10-20T07:34:19.861Z,21.40
2022-10-20T07:36:51.106Z,21.40
2022-10-20T07:39:18.306Z,21.50
2022-10-20T07:41:48.186Z,21.50
2022-10-20T07:44:16.813Z,21.70
2022-10-20T07:46:45.284Z,21.70
2022-10-20T07:52:03.464Z,21.80
2022-10-20T07:54:30.913Z,22.00
2022-10-20T07:56:58.134Z,22.10
2022-10-20T07:59:25.504Z,22.20
2022-10-20T08:01:56.103Z,22.30
2022-10-20T08:04:26.144Z,22.40
2022-10-20T08:06:53.284Z,22.70
2022-10-20T08:09:20.669Z,22.80
2022-10-20T08:11:51.399Z,22.90
2022-10-20T08:14:21.827Z,23.00
2022-10-20T08:19:45.498Z,23.20
2022-10-20T08:22:13.266Z,23.30
2022-10-20T08:24:40.525Z,23.50
2022-10-20T08:27:14.370Z,23.60
2022-10-20T08:29:47.700Z,23.60
2022-10-20T08:32:23.978Z,23.70
2022-10-20T08:34:51.232Z,23.70
2022-10-20T08:37:21.441Z,23.80
2022-10-20T08:39:48.991Z,23.90
2022-10-20T08:42:17.366Z,23.90
2022-10-20T08:44:47.508Z,24.10
2022-10-20T08:47:33.705Z,24.10
2022-10-20T08:50:02.762Z,24.20
2022-10-20T08:52:30.095Z,24.30
2022-10-20T08:54:58.244Z,24.20
2022-10-20T08:57:29.163Z,24.20
2022-10-20T09:00:05.684Z,24.10
2022-10-20T09:02:36.662Z,24.30
2022-10-20T09:05:06.712Z,24.40
2022-10-20T09:07:36.775Z,24.60
2022-10-20T09:10:04.226Z,24.70
2022-10-20T09:12:33.761Z,24.80
2022-10-20T09:15:01.485Z,24.90
2022-10-20T09:17:28.917Z,24.80
2022-10-20T09:19:59.673Z,24.80
2022-10-20T09:22:32.114Z,24.90
2022-10-20T09:25:02.367Z,25.00
2022-10-20T09:27:29.402Z,25.00
2022-10-20T09:29:56.552Z,25.20
2022-10-20T09:32:52.132Z,25.30
2022-10-20T09:35:35.598Z,25.50
2022-10-20T09:38:05.074Z,25.50
2022-10-20T09:40:32.564Z,25.60
2022-10-20T09:43:03.209Z,25.60
2022-10-20T09:45:32.985Z,25.50
2022-10-20T09:48:21.864Z,25.50
2022-10-20T09:50:55.529Z,25.50
2022-10-20T09:53:51.510Z,25.50
2022-10-20T09:56:37.275Z,25.70
2022-10-20T09:59:25.415Z,25.70
2022-10-20T10:02:23.779Z,25.70
2022-10-20T10:04:54.874Z,25.40
2022-10-20T10:07:25.136Z,25.40
2022-10-20T10:10:00.391Z,25.60
2022-10-20T10:12:31.923Z,25.70
2022-10-20T10:15:34.713Z,25.80
2022-10-20T10:18:14.081Z,25.80
2022-10-20T10:20:41.655Z,25.70
2022-10-20T10:23:22.555Z,25.80
2022-10-20T10:25:51.172Z,25.90
2022-10-20T10:31:18.951Z,26.20
2022-10-20T10:33:46.885Z,26.30
2022-10-20T10:36:35.707Z,26.50
2022-10-20T10:39:12.145Z,26.60
2022-10-20T10:42:12.412Z,26.70
2022-10-20T10:44:48.543Z,26.90
2022-10-20T10:47:15.753Z,27.10
2022-10-20T10:50:07.938Z,27.50
2022-10-20T10:52:53.084Z,27.90
2022-10-20T10:55:49.513Z,28.20
2022-10-20T10:58:47.578Z,29.00
2022-10-20T11:01:24.231Z,29.20
2022-10-20T11:04:03.376Z,29.60
2022-10-20T11:06:38.363Z,29.60
2022-10-20T11:09:28.355Z,30.10
2022-10-20T11:12:26.397Z,30.00
2022-10-20T11:15:04.948Z,30.40
2022-10-20T11:17:47.102Z,30.50
2022-10-20T11:20:36.864Z,30.60
2022-10-20T11:23:45.760Z,31.00
2022-10-20T11:26:31.151Z,31.10
2022-10-20T11:29:00.782Z,31.50
2022-10-20T11:31:34.331Z,31.40
2022-10-20T11:34:07.191Z,30.50
2022-10-20T11:36:47.705Z,30.40
2022-10-20T11:39:26.221Z,29.80
2022-10-20T11:42:05.554Z,29.60
2022-10-20T11:44:40.228Z,29.80
2022-10-20T11:47:12.184Z,29.80
2022-10-20T11:49:40.861Z,30.30
2022-10-20T11:52:23.524Z,31.00
2022-10-20T11:55:16.315Z,30.90
2022-10-20T11:57:43.514Z,30.40
2022-10-20T12:00:47.877Z,30.40
2022-10-20T12:03:45.996Z,30.40
2022-10-20T12:06:21.941Z,30.90
2022-10-20T12:09:06.537Z,30.50
2022-10-20T12:11:57.579Z,30.60
2022-10-20T12:14:41.573Z,30.40
2022-10-20T12:17:29.991Z,30.30
2022-10-20T12:20:21.770Z,30.40
2022-10-20T12:22:54.955Z,30.20
2022-10-20T12:25:31.292Z,30.20
2022-10-20T12:28:25.608Z,30.80
2022-10-20T12:30:59.906Z,31.70
2022-10-20T12:33:54.212Z,31.40
2022-10-20T12:36:32.214Z,31.60
2022-10-20T12:39:20.184Z,31.40
2022-10-20T12:42:04.601Z,31.00
2022-10-20T12:44:44.550Z,30.80
2022-10-20T12:47:28.448Z,30.80
2022-10-20T12:50:01.384Z,30.90
2022-10-20T12:52:38.099Z,30.50
2022-10-20T12:55:18.792Z,30.10
2022-10-20T12:57:47.386Z,30.20
2022-10-20T13:00:16.741Z,30.60
2022-10-20T13:02:45.351Z,30.90
2022-10-20T13:05:12.988Z,30.50
2022-10-20T13:07:52.715Z,29.80
2022-10-20T13:10:37.746Z,29.00
2022-10-20T13:13:04.961Z,28.40
2022-10-20T13:15:44.143Z,28.20
2022-10-20T13:18:42.592Z,27.90
2022-10-20T13:21:32.247Z,27.20
2022-10-20T13:24:14.374Z,27.00
2022-10-20T13:26:44.589Z,27.00
2022-10-20T13:29:17.880Z,26.90
2022-10-20T13:32:00.131Z,26.20
2022-10-20T13:34:56.377Z,25.90
2022-10-20T13:37:30.464Z,25.70
2022-10-20T13:40:03.568Z,25.70
2022-10-20T13:42:34.073Z,25.70
2022-10-20T13:45:04.639Z,25.70
2022-10-20T13:47:31.832Z,25.60
2022-10-20T13:50:27.957Z,25.40
2022-10-20T13:52:58.708Z,25.40
2022-10-20T13:55:28.976Z,25.30
2022-10-20T13:58:17.927Z,25.30
2022-10-20T14:01:06.365Z,25.30
2022-10-20T14:03:42.882Z,25.30
2022-10-20T14:06:34.122Z,25.40
2022-10-20T14:09:31.086Z,25.50
2022-10-20T14:12:08.103Z,25.50
2022-10-20T14:14:36.028Z,25.60
2022-10-20T14:17:06.763Z,25.50
2022-10-20T14:19:35.148Z,25.30
2022-10-20T14:22:23.836Z,25.10
2022-10-20T14:24:53.702Z,24.90
2022-10-20T14:27:24.514Z,24.80
2022-10-20T14:29:53.048Z,24.70
2022-10-20T14:32:25.901Z,24.60
2022-10-20T14:35:24.986Z,24.60
2022-10-20T14:38:23.710Z,24.40
2022-10-20T14:40:57.953Z,24.40
2022-10-20T14:43:35.583Z,24.40
2022-10-20T14:46:04.708Z,24.40
2022-10-20T14:48:46.927Z,24.40
2022-10-20T14:51:54.461Z,24.30
2022-10-20T14:54:22.510Z,24.20
2022-10-20T14:56:51.017Z,24.10
2022-10-20T14:59:56.091Z,24.10
2022-10-20T15:02:29.100Z,24.00
2022-10-20T15:04:56.520Z,23.90
2022-10-20T15:07:35.175Z,23.90
2022-10-20T15:10:14.197Z,24.00
2022-10-20T15:12:49.151Z,24.00
2022-10-20T15:15:23.654Z,23.90
2022-10-20T15:17:52.450Z,24.00
2022-10-20T15:20:34.245Z,24.00
2022-10-20T15:23:10.433Z,23.90
2022-10-20T15:25:50.944Z,23.90
2022-10-20T15:28:26.951Z,23.90
2022-10-20T15:30:54.330Z,23.90
2022-10-20T15:33:22.053Z,23.80
2022-10-20T15:35:50.600Z,23.70
2022-10-20T15:38:17.889Z,23.60
2022-10-20T15:40:45.165Z,23.50
2022-10-20T15:43:16.435Z,23.40
2022-10-20T15:45:55.338Z,23.30
2022-10-20T15:48:26.150Z,23.20
2022-10-20T15:50:54.489Z,23.10
2022-10-20T15:53:22.754Z,23.10
2022-10-20T15:55:49.972Z,23.10
2022-10-20T15:58:17.312Z,23.10
2022-10-20T16:00:44.651Z,23.10
2022-10-20T16:03:19.204Z,23.10
2022-10-20T16:05:49.258Z,23.00
2022-10-20T16:08:17.581Z,23.00
2022-10-20T16:10:44.770Z,23.00
2022-10-20T16:13:13.897Z,23.00
2022-10-20T16:15:41.180Z,23.00
2022-10-20T16:18:09.856Z,22.90
2022-10-20T16:20:40.363Z,22.90
2022-10-20T16:23:07.621Z,22.90
2022-10-20T16:25:35.003Z,22.90
2022-10-20T16:28:02.098Z,22.90
2022-10-20T16:30:29.206Z,22.80
2022-10-20T16:32:56.706Z,22.80
2022-10-20T16:35:24.291Z,22.80
2022-10-20T16:37:51.510Z,22.70
2022-10-20T16:40:19.561Z,22.70
2022-10-20T16:42:46.781Z,22.60
2022-10-20T16:45:14.185Z,22.50
2022-10-20T16:47:41.390Z,22.50
2022-10-20T16:50:08.884Z,22.50
2022-10-20T16:52:36.152Z,22.50
2022-10-20T16:55:03.598Z,22.40
2022-10-20T16:57:38.455Z,22.40
2022-10-20T17:00:08.821Z,22.40
2022-10-20T17:02:36.908Z,22.30
2022-10-20T17:05:08.193Z,22.30
2022-10-20T17:07:36.971Z,22.30
2022-10-20T17:10:04.590Z,22.30
2022-10-20T17:12:31.962Z,22.20
2022-10-20T17:14:59.114Z,22.30
2022-10-20T17:17:26.387Z,22.20
2022-10-20T17:19:53.453Z,22.20
2022-10-20T17:22:21.003Z,22.20
2022-10-20T17:24:48.181Z,22.20
2022-10-20T17:27:15.508Z,22.10
2022-10-20T17:29:43.682Z,22.10
2022-10-20T17:32:14.434Z,22.10
2022-10-20T17:34:44.597Z,22.00
2022-10-20T17:37:11.888Z,22.00
2022-10-20T17:39:38.986Z,22.00
2022-10-20T17:42:06.242Z,22.00
2022-10-20T17:44:33.450Z,22.10
2022-10-20T17:47:01.677Z,22.10
2022-10-20T17:49:29.133Z,22.10
2022-10-20T17:51:56.463Z,22.10
2022-10-20T17:54:23.775Z,22.10
2022-10-20T17:56:52.614Z,22.10
2022-10-20T17:59:20.753Z,22.00
2022-10-20T18:01:51.207Z,22.00
2022-10-20T18:04:19.013Z,21.90
2022-10-20T18:06:46.512Z,21.90
2022-10-20T18:09:16.174Z,21.80
2022-10-20T18:11:46.021Z,21.80
2022-10-20T18:14:13.455Z,21.80
2022-10-20T18:16:41.290Z,21.70
2022-10-20T18:19:12.208Z,21.70
2022-10-20T18:21:40.282Z,21.70
2022-10-20T18:24:10.531Z,21.70
2022-10-20T18:26:38.402Z,21.60
2022-10-20T18:29:08.860Z,21.60
2022-10-20T18:31:37.643Z,21.60
2022-10-20T18:34:08.489Z,21.60
2022-10-20T18:36:40.413Z,21.60
2022-10-20T18:39:11.092Z,21.70
2022-10-20T18:41:40.838Z,21.70
2022-10-20T18:44:12.741Z,21.70
2022-10-20T18:46:41.170Z,21.80
2022-10-20T18:49:09.551Z,21.90
2022-10-20T18:51:37.567Z,21.90
2022-10-20T18:54:06.923Z,22.00
2022-10-20T18:56:35.434Z,22.00
2022-10-20T18:59:06.033Z,22.10
2022-10-20T19:01:36.378Z,22.20
2022-10-20T19:04:05.144Z,22.20
2022-10-20T19:06:37.989Z,22.20
2022-10-20T19:09:11.362Z,22.20
2022-10-20T19:11:40.499Z,22.20
2022-10-20T19:14:14.317Z,22.10
2022-10-20T19:16:43.469Z,22.10
2022-10-20T19:19:12.282Z,22.10
2022-10-20T19:21:39.865Z,22.10
2022-10-20T19:24:14.825Z,22.10
2022-10-20T19:26:52.676Z,22.10
2022-10-20T19:29:30.332Z,22.00
2022-10-20T19:32:00.627Z,21.90
2022-10-20T19:34:39.732Z,21.90
2022-10-20T19:37:08.198Z,21.80
2022-10-20T19:39:38.761Z,21.80
2022-10-20T19:42:07.698Z,21.70
2022-10-20T19:44:35.758Z,21.60
2022-10-20T19:47:05.023Z,21.60
2022-10-20T19:49:32.770Z,21.50
2022-10-20T19:52:00.466Z,21.40
2022-10-20T19:54:28.000Z,21.40
2022-10-20T19:56:56.207Z,21.30
2022-10-20T19:59:23.562Z,21.30
2022-10-20T20:01:52.685Z,21.20
2022-10-20T20:04:21.358Z,21.10
2022-10-20T20:06:48.963Z,21.00
2022-10-20T20:09:18.312Z,21.00
2022-10-20T20:11:45.657Z,21.00
2022-10-20T20:14:16.487Z,21.00
2022-10-20T20:16:46.614Z,21.00
2022-10-20T20:19:15.832Z,21.00
2022-10-20T20:21:43.938Z,20.90
2022-10-20T20:24:15.612Z,20.90
2022-10-20T20:26:44.768Z,20.90
2022-10-20T20:29:12.480Z,20.80
2022-10-20T20:31:39.711Z,20.80
2022-10-20T20:34:06.915Z,20.80
2022-10-20T20:36:34.319Z,20.80
2022-10-20T20:39:03.022Z,20.80
2022-10-20T20:41:31.775Z,20.70
2022-10-20T20:44:00.985Z,20.70
2022-10-20T20:46:33.741Z,20.70
2022-10-20T20:49:02.433Z,20.60
2022-10-20T20:51:33.495Z,20.60
2022-10-20T20:54:04.971Z,20.60
2022-10-20T20:56:32.350Z,20.60
2022-10-20T20:59:00.532Z,20.50
2022-10-20T21:01:34.468Z,20.50
2022-10-20T21:04:04.252Z,20.50
2022-10-20T21:06:49.390Z,20.50
2022-10-20T21:09:22.305Z,20.50
2022-10-20T21:11:50.586Z,20.40
2022-10-20T21:14:21.051Z,20.40
2022-10-20T21:16:49.664Z,20.40
2022-10-20T21:19:18.478Z,20.40
2022-10-20T21:21:57.654Z,20.30
2022-10-20T21:24:28.533Z,20.30
2022-10-20T21:26:57.420Z,20.20
2022-10-20T21:29:25.303Z,20.20
2022-10-20T21:31:52.528Z,20.20
2022-10-20T21:34:19.788Z,20.30
2022-10-20T21:36:47.085Z,20.20
2022-10-20T21:39:18.469Z,20.30
2022-10-20T21:41:46.210Z,20.20
2022-10-20T21:44:15.077Z,20.20
2022-10-20T21:46:47.572Z,20.10
2022-10-20T21:49:18.349Z,20.10
2022-10-20T21:51:52.544Z,20.00
2022-10-20T21:54:23.016Z,20.00
2022-10-20T21:56:50.374Z,20.00
2022-10-20T21:59:22.588Z,19.90
2022-10-20T22:01:50.210Z,19.90
2022-10-20T22:04:20.189Z,19.90
2022-10-20T22:06:47.884Z,19.80
2022-10-20T22:09:16.545Z,19.80
2022-10-20T22:11:50.055Z,19.80
2022-10-20T22:14:17.638Z,19.80
2022-10-20T22:16:52.495Z,19.80
2022-10-20T22:19:21.921Z,19.80
2022-10-20T22:21:51.526Z,19.70
2022-10-20T22:24:20.269Z,19.70
2022-10-20T22:26:49.253Z,19.70
2022-10-20T22:29:16.378Z,19.70
2022-10-20T22:31:43.665Z,19.60
2022-10-20T22:34:11.283Z,19.60
2022-10-20T22:36:41.753Z,19.60
2022-10-20T22:39:09.192Z,19.50
2022-10-20T22:41:36.921Z,19.50
2022-10-20T22:44:05.021Z,19.50
2022-10-20T22:46:32.306Z,19.40
2022-10-20T22:51:31.498Z,19.40
2022-10-20T22:53:59.193Z,19.30
2022-10-20T22:56:26.537Z,19.30
2022-10-20T22:58:54.729Z,19.30
2022-10-20T23:01:23.655Z,19.20
2022-10-20T23:03:51.626Z,19.20
2022-10-20T23:06:24.258Z,19.20
2022-10-20T23:08:54.494Z,19.20
2022-10-20T23:11:22.188Z,19.10
2022-10-20T23:13:51.226Z,19.10
2022-10-20T23:16:18.481Z,19.10
2022-10-20T23:18:46.014Z,19.10
2022-10-20T23:21:14.264Z,19.10
2022-10-20T23:23:42.295Z,19.10
2022-10-20T23:26:10.553Z,19.00
2022-10-20T23:28:40.121Z,19.00
2022-10-20T23:31:15.915Z,19.00
2022-10-20T23:33:45.156Z,18.90
2022-10-20T23:36:13.724Z,18.90
2022-10-20T23:38:41.419Z,18.90
2022-10-20T23:41:09.856Z,18.90
2022-10-20T23:46:09.689Z,18.90
2022-10-20T23:48:36.845Z,18.80
2022-10-20T23:51:04.982Z,18.80
2022-10-20T23:53:32.262Z,18.80
2022-10-20T23:55:59.662Z,18.70
2022-10-20T23:58:27.520Z,18.70
